Time;durP1;ratioP1;P1;durP2;ratioP2;P2;SDS_P1;SDS_P2;PMS_P1;PMS_P2;Temp;Humidity;BMP_temperature;BMP_pressure;BME280_temperature;BME280_humidity;BME280_pressure;Samples;Min_cycle;Max_cycle;Signal;HPM_P1;HPM_P2
2022/06/20 00:02:28;;;;;;;7.82;4.35;;;;;;;12.02;92.00;101144.94;10430278;28;20041;-80
2022/06/20 00:07:29;;;;;;;9.98;3.55;;;;;;;11.92;92.38;101138.31;10427498;28;20044;-80
2022/06/20 00:12:29;;;;;;;6.50;3.65;;;;;;;11.92;93.08;101122.56;10404919;28;20133;-80
2022/06/20 00:17:30;;;;;;;10.73;3.88;;;;;;;11.94;93.46;101141.91;10403341;28;20094;-80
2022/06/20 00:22:30;;;;;;;8.55;4.45;;;;;;;12.03;94.55;101131.88;10402558;28;20133;-80
2022/06/20 00:27:31;;;;;;;10.30;3.95;;;;;;;12.09;94.53;101139.13;10436957;28;20121;-80
2022/06/20 00:32:31;;;;;;;9.32;4.38;;;;;;;12.12;95.24;101159.34;10414267;28;20120;-80
2022/06/20 00:37:32;;;;;;;9.88;4.88;;;;;;;12.07;96.34;101203.75;10414305;28;20420;-80
2022/06/20 00:42:32;;;;;;;10.85;4.93;;;;;;;12.05;97.40;101202.78;10401541;28;20080;-80
2022/06/20 00:47:33;;;;;;;9.70;4.20;;;;;;;12.01;99.00;101301.41;10371173;28;20068;-80
2022/06/20 00:53:02;;;;;;;9.32;4.57;;;;;;;11.98;99.37;101410.53;10388158;28;20124;-79
2022/06/20 00:58:29;;;;;;;9.93;5.65;;;;;;;11.97;98.64;101409.59;10404964;28;20032;-80
2022/06/20 01:03:33;;;;;;;14.07;6.93;;;;;;;11.93;98.27;101364.78;10429566;28;20432;-79
2022/06/20 01:08:34;;;;;;;9.75;5.70;;;;;;;11.88;97.99;101354.06;10443693;28;20048;-80
2022/06/20 01:13:35;;;;;;;15.43;5.47;;;;;;;11.84;97.48;101311.06;10443643;28;20041;-78
2022/06/20 01:18:35;;;;;;;12.23;5.57;;;;;;;11.83;97.50;101300.47;10443241;28;20068;-79
2022/06/20 01:23:45;;;;;;;12.00;5.85;;;;;;;11.80;97.67;101266.22;10419190;28;20129;-80
2022/06/20 01:28:47;;;;;;;18.13;5.63;;;;;;;11.74;97.90;101217.91;10407164;28;20116;-79
2022/06/20 01:33:47;;;;;;;12.88;6.60;;;;;;;11.63;97.84;101192.88;10413043;28;20075;-79
2022/06/20 01:38:48;;;;;;;10.00;6.90;;;;;;;11.66;98.89;101190.41;10441823;28;20132;-79
2022/06/20 01:43:48;;;;;;;14.30;6.03;;;;;;;11.64;99.54;101192.06;10406913;28;20051;-80
2022/06/20 01:48:51;;;;;;;17.55;6.75;;;;;;;11.82;99.62;101172.78;10407221;28;20033;-80
2022/06/20 01:53:52;;;;;;;;;;;;;;;11.78;99.72;101158.66;10424384;28;20722;-79
2022/06/20 01:59:06;;;;;;;17.08;7.30;;;;;;;11.76;100.00;101128.84;10425292;28;19920;-79
2022/06/20 02:04:10;;;;;;;23.85;6.60;;;;;;;11.77;100.00;101108.75;10442084;28;20140;-79
2022/06/20 02:09:12;;;;;;;14.25;7.80;;;;;;;11.74;100.00;101088.53;10425589;28;20377;-80
2022/06/20 02:14:14;;;;;;;9.32;5.70;;;;;;;11.74;100.00;101068.44;10442310;28;20067;-80
2022/06/20 02:19:16;;;;;;;10.38;6.43;;;;;;;11.77;97.77;101074.66;10440672;28;20494;-80
2022/06/20 02:24:18;;;;;;;11.75;4.35;;;;;;;11.83;95.07;101065.38;10424513;28;20052;-81
2022/06/20 02:29:21;;;;;;;20.27;7.55;;;;;;;11.79;94.40;101075.63;10368755;28;20037;-81
2022/06/20 02:34:23;;;;;;;21.17;9.05;;;;;;;11.75;94.96;101079.84;10411419;28;20049;-81
2022/06/20 02:39:23;;;;;;;16.65;8.00;;;;;;;11.77;93.43;101064.16;10438087;28;20128;-79
2022/06/20 02:44:26;;;;;;;12.70;4.88;;;;;;;11.71;94.20;101075.28;10410745;28;20047;-80
2022/06/20 02:49:27;;;;;;;11.65;4.50;;;;;;;11.68;93.72;101088.25;10363436;28;20412;-79
2022/06/20 02:54:28;;;;;;;12.60;4.45;;;;;;;11.70;93.37;101086.59;10414298;28;20041;-78
2022/06/20 02:59:50;;;;;;;10.23;5.00;;;;;;;11.66;93.56;101089.91;10382571;28;20049;-79
2022/06/20 03:04:51;;;;;;;9.57;3.73;;;;;;;11.70;92.63;101083.97;10440640;28;20045;-79
2022/06/20 03:09:55;;;;;;;20.60;5.45;;;;;;;11.72;92.07;101075.34;10444994;28;20401;-79
2022/06/20 03:14:58;;;;;;;9.98;3.63;;;;;;;11.77;90.89;101024.84;10447330;28;20032;-78
2022/06/20 03:20:01;;;;;;;11.07;4.72;;;;;;;11.76;91.26;101016.09;10446660;28;20435;-78
2022/06/20 03:25:02;;;;;;;12.32;3.95;;;;;;;11.72;91.20;101043.88;10446086;28;20051;-79
2022/06/20 03:30:30;;;;;;;13.27;5.50;;;;;;;11.74;91.17;101054.47;10463510;28;20056;-79
2022/06/20 03:35:31;;;;;;;9.10;4.35;;;;;;;11.74;90.66;101047.47;10458017;28;20052;-79
2022/06/20 03:40:31;;;;;;;10.23;4.45;;;;;;;11.82;89.47;101065.28;10423487;28;20048;-79
2022/06/20 03:45:33;;;;;;;8.60;3.72;;;;;;;11.73;90.94;101087.63;10466660;28;20082;-79
2022/06/20 03:50:37;;;;;;;10.57;4.13;;;;;;;11.70;92.09;101118.06;10419495;28;20029;-79
2022/06/20 03:56:19;;;;;;;11.75;4.55;;;;;;;11.76;91.90;101152.44;10443714;28;20047;-79
2022/06/20 04:01:46;;;;;;;12.85;3.65;;;;;;;11.81;92.04;101190.28;10431363;28;20041;-78
2022/06/20 04:06:52;;;;;;;13.82;3.88;;;;;;;11.80;91.84;101212.06;10439660;28;20049;-79
2022/06/20 04:12:01;;;;;;;13.32;4.47;;;;;;;11.83;92.90;101213.94;10467987;28;20040;-79
2022/06/20 04:18:27;;;;;;;22.05;6.40;;;;;;;11.97;91.34;101218.09;10444431;28;20423;-78
2022/06/20 04:22:27;;;;;;;15.10;6.03;;;;;;;11.94;91.72;101248.56;10447963;28;20105;-78
2022/06/20 04:27:32;;;;;;;11.45;5.80;;;;;;;11.92;93.12;101250.22;10441673;28;20032;-78
2022/06/20 04:32:34;;;;;;;10.93;5.10;;;;;;;11.83;94.08;101251.56;10482464;28;20041;-78
2022/06/20 04:37:52;;;;;;;12.38;5.05;;;;;;;11.79;95.14;101261.81;10461428;28;20044;-78
2022/06/20 04:43:09;;;;;;;10.02;5.15;;;;;;;11.71;95.99;101261.44;10459534;28;20049;-78
2022/06/20 04:48:20;;;;;;;17.25;5.63;;;;;;;11.71;96.39;101264.94;10467865;28;20093;-77
2022/06/20 04:53:23;;;;;;;11.50;4.47;;;;;;;11.69;97.20;101260.47;10439661;28;20110;-77
2022/06/20 04:58:34;;;;;;;13.52;4.15;;;;;;;11.72;97.31;101258.88;10443666;28;20128;-79
2022/06/20 05:03:45;;;;;;;10.38;4.95;;;;;;;11.74;97.21;101264.22;10447900;28;20047;-80
2022/06/20 05:08:48;;;;;;;15.20;5.30;;;;;;;11.77;97.46;101260.84;10444354;28;20035;-79
2022/06/20 05:13:55;;;;;;;12.98;4.53;;;;;;;11.79;96.94;101260.09;10445869;28;20048;-79
2022/06/20 05:18:58;;;;;;;10.50;4.45;;;;;;;11.82;95.75;101260.25;10468778;28;20071;-78
2022/06/20 05:24:00;;;;;;;8.20;3.80;;;;;;;11.88;94.40;101262.25;10448005;28;20063;-78
2022/06/20 05:29:06;;;;;;;13.50;5.32;;;;;;;11.86;93.65;101269.16;10450148;28;20045;-79
2022/06/20 05:34:09;;;;;;;10.18;4.38;;;;;;;11.92;93.37;101258.06;10445043;28;20029;-78
2022/06/20 05:39:16;;;;;;;10.02;4.00;;;;;;;12.01;89.84;101251.56;10481151;28;20098;-78
2022/06/20 05:44:17;;;;;;;13.68;3.83;;;;;;;11.99;90.43;101245.31;10447194;28;20044;-80
2022/06/20 05:49:25;;;;;;;13.25;4.93;;;;;;;11.96;91.50;101249.53;10434910;28;20415;-80
2022/06/20 05:54:51;;;;;;;12.20;3.83;;;;;;;12.03;89.25;101234.19;10429431;28;20396;-81
2022/06/20 05:59:57;;;;;;;13.13;5.10;;;;;;;12.10;92.04;101230.13;10448022;28;20052;-78
2022/06/20 06:05:04;;;;;;;11.15;3.60;;;;;;;12.38;89.14;101262.91;10446013;28;20043;-81
2022/06/20 06:10:19;;;;;;;12.35;4.53;;;;;;;12.50;89.87;101274.81;10476904;28;20109;-77
2022/06/20 06:21:12;;;;;;;17.73;5.20;;;;;;;12.94;87.48;101286.44;10418174;28;22164;-80
2022/06/20 06:26:15;;;;;;;7.50;2.83;;;;;;;13.08;86.00;101260.75;10458568;28;20033;-81
2022/06/20 06:31:26;;;;;;;12.63;4.95;;;;;;;13.28;85.97;101259.00;10447817;28;20040;-81
2022/06/20 06:36:32;;;;;;;9.52;3.28;;;;;;;13.65;81.78;101262.31;10436424;28;20456;-82
2022/06/20 06:41:36;;;;;;;10.32;3.33;;;;;;;14.05;81.18;101263.03;10481109;28;20052;-78
2022/06/20 06:46:38;;;;;;;10.60;3.67;;;;;;;14.53;82.25;101280.69;10423303;28;20037;-78
2022/06/20 06:51:59;;;;;;;11.93;3.75;;;;;;;15.20;79.81;101289.28;10406759;28;20137;-79
2022/06/20 06:57:10;;;;;;;5.53;3.60;;;;;;;16.18;72.19;101289.94;10442451;28;20059;-80
2022/06/20 07:02:22;;;;;;;7.57;3.20;;;;;;;16.46;70.65;101293.44;10381214;28;20049;-80
2022/06/20 07:07:26;;;;;;;8.50;3.28;;;;;;;16.57;72.30;101306.94;10369776;28;20040;-80
2022/06/20 07:12:45;;;;;;;11.30;4.43;;;;;;;16.93;71.77;101305.34;10428015;28;20040;-80
2022/06/20 07:17:53;;;;;;;7.13;3.20;;;;;;;19.45;64.56;101317.41;10451103;28;20177;-80
2022/06/20 07:22:54;;;;;;;9.63;3.10;;;;;;;21.59;55.35;101315.06;10464357;28;20071;-81
2022/06/20 07:27:58;;;;;;;9.00;4.10;;;;;;;21.58;56.43;101323.06;10440035;28;20056;-81
2022/06/20 07:33:24;;;;;;;5.80;2.15;;;;;;;22.61;51.57;101320.28;10438739;28;20507;-81
2022/06/20 07:38:34;;;;;;;7.65;2.78;;;;;;;21.38;53.21;101321.09;10473961;28;20043;-81
2022/06/20 07:43:58;;;;;;;7.68;3.35;;;;;;;22.40;49.44;101326.34;10455506;28;20052;-81
2022/06/20 07:49:02;;;;;;;10.60;3.53;;;;;;;22.69;46.22;101325.66;10474322;28;20049;-82
2022/06/20 07:54:10;;;;;;;7.90;2.97;;;;;;;24.17;45.64;101326.81;10455207;28;20110;-79
2022/06/20 07:59:17;;;;;;;7.00;2.40;;;;;;;26.35;39.39;101321.13;10472106;28;20438;-81
2022/06/20 08:04:20;;;;;;;7.82;2.22;;;;;;;25.99;38.19;101329.47;10453009;28;20041;-81
2022/06/20 08:09:33;;;;;;;8.20;2.72;;;;;;;26.10;41.73;101337.44;10453370;28;20484;-82
2022/06/20 08:14:58;;;;;;;6.10;2.83;;;;;;;25.96;38.35;101345.59;10381154;28;20072;-82
2022/06/20 08:19:59;;;;;;;4.72;2.00;;;;;;;23.74;42.25;101354.44;10397102;28;20041;-82
2022/06/20 08:25:12;;;;;;;5.57;2.37;;;;;;;22.16;49.52;101365.28;10387224;28;20119;-82
2022/06/20 08:30:33;;;;;;;6.40;1.63;;;;;;;25.30;39.73;101352.31;10389066;28;20061;-81
2022/06/20 08:35:36;;;;;;;8.07;2.90;;;;;;;24.80;43.51;101354.34;10405167;28;20409;-81
2022/06/20 08:40:48;;;;;;;5.38;2.08;;;;;;;27.28;37.08;101346.84;10402368;28;20073;-81
2022/06/20 08:45:48;;;;;;;;;;;;;;;28.25;35.50;101341.72;10404044;28;20049;-80
2022/06/20 08:51:13;;;;;;;3.77;1.40;;;;;;;28.24;34.48;101350.69;10403092;28;19920;-82
2022/06/20 08:56:32;;;;;;;5.55;1.90;;;;;;;24.90;38.08;101350.75;10404715;28;20052;-82
2022/06/20 09:02:05;;;;;;;7.32;3.58;;;;;;;21.78;45.23;101376.53;10347416;28;21315;-81
2022/06/20 09:07:15;;;;;;;7.13;2.55;;;;;;;21.65;47.45;101383.53;10368503;28;20052;-82
2022/06/20 09:12:30;;;;;;;6.75;2.30;;;;;;;22.81;42.90;101394.19;10433757;28;20045;-81
2022/06/20 09:17:39;;;;;;;8.07;3.10;;;;;;;20.45;47.64;101397.91;10443816;28;20041;-81
2022/06/20 09:22:59;;;;;;;6.05;2.30;;;;;;;19.44;52.24;101405.88;10445985;28;20105;-82
2022/06/20 09:28:36;;;;;;;3.83;2.20;;;;;;;18.82;52.88;101413.44;10467801;28;20469;-82
2022/06/20 09:33:44;;;;;;;6.32;2.58;;;;;;;19.29;52.15;101411.78;10484066;28;20139;-82
2022/06/20 09:39:06;;;;;;;6.38;3.50;;;;;;;19.04;53.20;101411.28;10469092;28;20175;-81
2022/06/20 09:44:10;;;;;;;5.85;2.22;;;;;;;23.92;44.05;101400.78;10484548;28;20041;-80
2022/06/20 09:49:23;;;;;;;5.57;2.47;;;;;;;23.66;38.70;101399.84;10482908;28;20041;-82
2022/06/20 09:54:44;;;;;;;4.45;2.15;;;;;;;21.09;46.71;101404.16;10465621;28;20396;-80
2022/06/20 10:00:08;;;;;;;4.88;2.53;;;;;;;19.54;49.71;101422.91;10450968;28;20036;-80
2022/06/20 10:05:13;;;;;;;5.20;2.75;;;;;;;18.86;53.11;101420.59;10466815;28;20036;-80
2022/06/20 10:10:21;;;;;;;5.38;2.08;;;;;;;21.96;46.65;101405.13;10465598;28;20123;-80
2022/06/20 10:15:21;;;;;;;3.33;1.77;;;;;;;25.73;39.42;101411.00;10433168;28;20048;-82
2022/06/20 10:20:37;;;;;;;5.33;2.80;;;;;;;26.95;34.71;101413.53;10484420;28;20032;-80
2022/06/20 10:25:57;;;;;;;7.40;1.80;;;;;;;23.43;40.37;101416.72;10434833;28;20111;-80
2022/06/20 10:31:03;;;;;;;9.52;3.75;;;;;;;20.55;46.64;101436.19;10449095;28;20032;-80
2022/06/20 10:36:13;;;;;;;7.65;2.70;;;;;;;19.74;49.63;101439.19;10483441;28;20055;-80
2022/06/20 10:41:14;;;;;;;6.13;3.25;;;;;;;21.30;45.97;101432.78;10447411;28;20435;-81
2022/06/20 10:46:28;;;;;;;6.72;2.30;;;;;;;24.64;38.44;101426.63;10483172;28;20044;-79
2022/06/20 10:51:36;;;;;;;5.65;2.50;;;;;;;23.74;40.37;101437.28;10447894;28;20044;-80
2022/06/20 10:56:46;;;;;;;4.30;2.38;;;;;;;22.18;43.43;101448.84;10448383;28;20496;-80
2022/06/20 11:01:52;;;;;;;5.93;2.65;;;;;;;24.18;40.21;101440.91;10439398;28;20051;-80
2022/06/20 11:06:59;;;;;;;3.70;1.80;;;;;;;26.34;33.72;101440.09;10456090;28;20479;-81
2022/06/20 11:12:02;;;;;;;8.68;2.20;;;;;;;26.27;34.22;101452.66;10469042;28;20056;-81
2022/06/20 11:17:28;;;;;;;5.43;2.75;;;;;;;24.18;39.07;101463.22;10489910;28;20052;-81
2022/06/20 11:22:41;;;;;;;6.85;3.28;;;;;;;25.72;36.34;101454.78;10484926;28;20458;-81
2022/06/20 11:28:00;;;;;;;6.00;2.25;;;;;;;24.54;34.73;101451.63;10455599;28;20090;-87
2022/06/20 11:39:24;;;;;;;7.10;3.03;;;;;;;26.31;36.35;101442.78;10434992;28;20401;-83
2022/06/20 11:44:39;;;;;;;4.47;2.58;;;;;;;26.74;32.65;101447.75;10427425;28;20131;-81
2022/06/20 11:50:13;;;;;;;4.53;2.25;;;;;;;27.14;30.59;101445.53;10488080;28;20037;-79
2022/06/20 11:55:58;;;;;;;8.32;3.65;;;;;;;24.42;38.04;101439.13;10432526;28;20102;-77
2022/06/20 12:01:13;;;;;;;6.72;3.17;;;;;;;24.72;38.02;101438.19;10424198;28;20128;-81
2022/06/20 12:06:23;;;;;;;8.02;3.70;;;;;;;25.98;36.41;101429.59;10414426;28;20128;-79
2022/06/20 12:11:30;;;;;;;5.38;3.10;;;;;;;26.33;35.53;101420.41;10477363;28;20048;-78
2022/06/20 12:16:48;;;;;;;5.57;2.10;;;;;;;27.50;32.05;101428.03;10508611;28;20063;-79
2022/06/20 12:27:12;;;;;;;7.85;3.45;;;;;;;28.06;32.62;101420.94;10510603;28;20036;-80
2022/06/20 12:32:18;;;;;;;8.15;3.08;;;;;;;26.31;32.77;101434.75;10494751;28;20033;-80
2022/06/20 12:37:29;;;;;;;8.07;3.20;;;;;;;28.02;30.88;101427.28;10454563;28;20044;-79
2022/06/20 12:42:39;;;;;;;14.40;3.38;;;;;;;26.26;32.57;101431.22;10477514;28;20036;-80
2022/06/20 12:48:27;;;;;;;4.78;2.30;;;;;;;24.43;35.13;101428.44;10434256;28;20047;-80
2022/06/20 12:53:37;;;;;;;10.50;3.55;;;;;;;25.22;33.17;101438.94;10420857;28;20055;-81
2022/06/20 12:58:59;;;;;;;8.18;3.08;;;;;;;26.81;30.88;101427.06;10478961;28;20078;-82
2022/06/20 13:04:08;;;;;;;9.98;3.90;;;;;;;24.52;35.99;101432.88;10485052;28;20541;-79
2022/06/20 13:09:46;;;;;;;7.43;4.07;;;;;;;23.72;37.49;101437.28;10476444;28;20066;-79
2022/06/20 13:15:22;;;;;;;8.48;3.13;;;;;;;23.92;35.33;101425.72;10420163;28;20400;-82
2022/06/20 13:20:38;;;;;;;6.88;2.97;;;;;;;26.45;34.08;101423.88;10458605;28;20063;-82
2022/06/20 13:25:43;;;;;;;10.00;3.28;;;;;;;27.81;31.56;101434.78;10462462;28;20048;-81
2022/06/20 13:31:02;;;;;;;8.95;3.45;;;;;;;27.78;30.68;101426.75;10421808;28;20041;-85
2022/06/20 13:36:27;;;;;;;7.25;3.33;;;;;;;28.05;29.69;101428.09;10477837;28;20131;-81
2022/06/20 13:41:41;;;;;;;6.60;3.50;;;;;;;28.05;29.55;101433.50;10492295;28;20551;-77
2022/06/20 13:47:08;;;;;;;8.32;3.05;;;;;;;26.51;30.76;101431.84;10447737;28;20032;-77
2022/06/20 13:52:25;;;;;;;7.07;2.92;;;;;;;23.88;36.41;101429.28;10465016;28;20047;-77
2022/06/20 13:57:33;;;;;;;6.60;2.47;;;;;;;23.17;36.54;101432.63;10465254;28;20503;-81
2022/06/20 14:02:39;;;;;;;6.65;3.20;;;;;;;22.36;39.05;101433.88;10449588;28;20047;-81
2022/06/20 14:07:40;;;;;;;9.30;3.17;;;;;;;24.51;37.99;101423.06;10425540;28;20116;-81
2022/06/20 14:12:42;;;;;;;9.70;3.60;;;;;;;24.80;34.48;101424.81;10388867;28;20516;-82
2022/06/20 14:17:49;;;;;;;6.93;3.10;;;;;;;23.11;38.03;101443.28;10396957;28;20494;-81
2022/06/20 14:22:50;;;;;;;10.15;3.78;;;;;;;24.60;35.34;101425.72;10377264;28;20049;-81
2022/06/20 14:27:51;;;;;;;11.17;3.40;;;;;;;24.01;36.06;101433.78;10396208;28;20053;-80
2022/06/20 14:32:56;;;;;;;15.68;2.58;;;;;;;22.96;37.61;101430.72;10398797;28;20099;-82
2022/06/20 14:37:57;;;;;;;8.55;3.35;;;;;;;24.03;37.23;101426.66;10439824;28;20037;-80
2022/06/20 14:43:00;;;;;;;7.77;2.60;;;;;;;24.04;34.63;101424.88;10440068;28;20052;-80
2022/06/20 14:48:03;;;;;;;8.73;3.60;;;;;;;24.20;35.30;101425.75;10441139;28;20063;-81
2022/06/20 14:53:10;;;;;;;6.70;2.30;;;;;;;25.07;33.65;101425.63;10440426;28;20041;-81
2022/06/20 14:58:22;;;;;;;7.13;2.90;;;;;;;24.90;34.08;101433.72;10408456;28;20057;-81
2022/06/20 15:03:35;;;;;;;8.65;3.28;;;;;;;24.28;35.98;101432.00;10400940;28;20064;-80
2022/06/20 15:08:46;;;;;;;8.07;3.75;;;;;;;23.90;34.28;101438.19;10398688;28;20520;-80
2022/06/20 15:13:58;;;;;;;6.75;2.30;;;;;;;23.54;37.20;101442.56;10404835;28;20389;-80
2022/06/20 15:19:15;;;;;;;13.65;3.33;;;;;;;22.78;37.97;101445.75;10442993;28;20098;-83
2022/06/20 15:24:54;;;;;;;9.57;3.03;;;;;;;22.25;40.08;101445.34;10421147;28;20792;-81
2022/06/20 15:30:20;;;;;;;9.35;3.63;;;;;;;22.17;39.44;101444.38;10399435;28;20088;-82
2022/06/20 15:40:44;;;;;;;7.30;2.78;;;;;;;22.44;38.18;101437.50;10447674;28;20060;-78
2022/06/20 15:45:51;;;;;;;8.68;2.67;;;;;;;22.57;38.39;101441.19;10459203;28;20045;-80
2022/06/20 15:51:15;;;;;;;5.97;2.38;;;;;;;22.59;41.44;101447.41;10399496;28;20061;-80
2022/06/20 15:56:24;;;;;;;6.20;2.80;;;;;;;22.10;39.61;101439.88;10415648;28;20049;-79
2022/06/20 16:01:36;;;;;;;15.85;3.20;;;;;;;21.69;40.40;101447.47;10445297;28;20071;-81
2022/06/20 16:06:57;;;;;;;8.05;2.85;;;;;;;21.27;39.79;101440.75;10392109;28;20489;-82
2022/06/20 16:12:08;;;;;;;10.65;4.78;;;;;;;20.71;41.99;101434.63;10444502;28;20048;-83
2022/06/20 16:17:09;;;;;;;5.82;2.70;;;;;;;20.59;42.70;101439.78;10403346;28;20041;-81
2022/06/20 16:22:11;;;;;;;8.35;2.60;;;;;;;20.75;41.42;101446.22;10419654;28;20469;-83
2022/06/20 16:27:29;;;;;;;10.23;3.22;;;;;;;20.78;41.27;101444.53;10407872;28;20064;-80
2022/06/20 16:32:29;;;;;;;9.65;3.22;;;;;;;20.53;43.67;101437.94;10427034;28;20409;-82
2022/06/20 16:37:30;;;;;;;9.27;4.15;;;;;;;20.22;44.96;101446.28;10446232;28;20045;-82
2022/06/20 16:42:57;;;;;;;8.65;3.42;;;;;;;19.97;43.74;101450.28;10415799;28;20056;-80
2022/06/20 16:48:04;;;;;;;12.02;3.88;;;;;;;19.79;46.63;101462.31;10416235;28;20102;-80
2022/06/20 16:53:22;;;;;;;11.75;3.50;;;;;;;19.80;45.64;101457.91;10411802;28;20045;-80
2022/06/20 16:58:28;;;;;;;6.90;3.08;;;;;;;19.55;45.79;101457.41;10442350;28;20044;-83
2022/06/20 17:03:48;;;;;;;9.77;3.08;;;;;;;19.43;45.78;101465.13;10441651;28;20049;-90
2022/06/20 17:08:55;;;;;;;6.13;2.92;;;;;;;19.33;46.91;101466.72;10397538;28;20042;-88
2022/06/20 17:14:22;;;;;;;6.38;2.70;;;;;;;19.42;45.48;101461.59;10411057;28;20041;-78
2022/06/20 17:19:32;;;;;;;10.00;2.92;;;;;;;19.29;47.30;101459.56;10415304;28;20110;-78
2022/06/20 17:24:39;;;;;;;7.68;2.28;;;;;;;19.10;46.47;101464.47;10423682;28;20073;-78
2022/06/20 17:29:43;;;;;;;13.40;3.78;;;;;;;19.04;44.85;101465.22;10442083;28;20120;-79
2022/06/20 17:34:48;;;;;;;5.90;2.33;;;;;;;18.90;46.39;101458.66;10443489;28;20496;-79
2022/06/20 17:40:09;;;;;;;10.50;4.00;;;;;;;18.76;46.27;101463.66;10422471;28;20034;-79
2022/06/20 17:45:37;;;;;;;8.35;2.35;;;;;;;18.44;47.21;101456.72;10429624;28;20045;-79
2022/06/20 17:51:05;;;;;;;11.15;2.85;;;;;;;18.12;48.80;101464.75;10410164;28;20042;-79
2022/06/20 17:56:12;;;;;;;7.43;2.53;;;;;;;17.93;49.59;101463.34;10427877;28;20036;-79
2022/06/20 18:01:31;;;;;;;8.68;2.88;;;;;;;17.86;50.11;101453.44;10433647;28;20488;-78
2022/06/20 18:06:34;;;;;;;5.60;2.30;;;;;;;17.70;50.96;101454.75;10370531;28;20038;-80
2022/06/20 18:11:45;;;;;;;8.32;3.75;;;;;;;17.38;52.16;101460.03;10416319;28;20041;-79
2022/06/20 18:17:10;;;;;;;4.93;2.42;;;;;;;17.13;53.31;101462.88;10465778;28;20036;-78
2022/06/20 18:22:23;;;;;;;6.88;2.88;;;;;;;16.93;54.20;101469.25;10426183;28;20492;-78
2022/06/20 18:27:33;;;;;;;8.80;3.05;;;;;;;16.92;53.74;101459.53;10470439;28;20044;-78
2022/06/20 18:32:38;;;;;;;6.10;2.78;;;;;;;16.73;55.02;101473.06;10448709;28;20127;-78
2022/06/20 18:37:38;;;;;;;9.32;3.90;;;;;;;16.52;55.85;101464.44;10447581;28;20036;-78
2022/06/20 18:42:39;;;;;;;5.40;2.40;;;;;;;16.65;55.29;101466.63;10482827;28;20488;-78
2022/06/20 18:48:24;;;;;;;4.53;3.00;;;;;;;16.60;55.26;101473.50;10465868;28;20067;-78
2022/06/20 18:53:44;;;;;;;4.90;2.97;;;;;;;16.37;55.78;101473.63;10444459;28;20044;-78
2022/06/20 18:59:07;;;;;;;5.80;2.88;;;;;;;16.21;56.38;101477.53;10389983;28;20515;-79
2022/06/20 19:04:31;;;;;;;7.57;2.90;;;;;;;15.85;57.71;101470.97;10462274;28;20123;-78
2022/06/20 19:09:55;;;;;;;;;;;;;;;15.48;59.80;101476.66;10480811;28;20070;-79
2022/06/20 19:15:23;;;;;;;10.38;4.55;;;;;;;15.14;59.82;101483.28;10478112;28;19942;-78
2022/06/20 19:20:55;;;;;;;5.65;2.72;;;;;;;14.74;61.30;101483.50;10478537;28;20036;-78
2022/06/20 19:25:58;;;;;;;5.95;4.63;;;;;;;14.41;62.18;101483.88;10474916;28;20033;-78
2022/06/20 19:31:19;;;;;;;9.30;3.78;;;;;;;14.12;63.56;101495.78;10430490;28;20033;-81
2022/06/20 19:36:23;;;;;;;8.60;4.03;;;;;;;13.79;65.53;101494.41;10434543;28;20095;-80
2022/06/20 19:41:30;;;;;;;5.93;3.38;;;;;;;13.77;66.16;101501.31;10447446;28;20400;-80
2022/06/20 19:46:37;;;;;;;9.10;4.25;;;;;;;13.48;66.80;101503.53;10472338;28;20044;-80
2022/06/20 19:51:37;;;;;;;8.60;6.03;;;;;;;13.18;68.03;101509.13;10489473;28;20044;-80
2022/06/20 19:57:09;;;;;;;15.80;4.75;;;;;;;13.10;68.73;101514.00;10472048;28;20036;-80
2022/06/20 20:02:20;;;;;;;6.38;3.58;;;;;;;12.81;70.40;101523.13;10471380;28;20071;-80
2022/06/20 20:07:26;;;;;;;12.38;4.90;;;;;;;12.39;71.47;101529.84;10435110;28;20075;-80
2022/06/20 20:12:27;;;;;;;7.18;3.92;;;;;;;12.08;72.67;101525.63;10446589;28;20037;-80
2022/06/20 20:17:29;;;;;;;6.10;3.53;;;;;;;11.83;74.36;101537.44;10424308;28;20141;-80
2022/06/20 20:22:33;;;;;;;10.30;4.78;;;;;;;11.83;75.74;101537.44;10446373;28;20051;-80
2022/06/20 20:27:37;;;;;;;11.13;5.55;;;;;;;11.60;75.77;101518.75;10372460;28;20129;-80
2022/06/20 20:33:02;;;;;;;7.78;4.47;;;;;;;11.27;77.24;101531.81;10425808;28;20087;-79
2022/06/20 20:38:23;;;;;;;10.98;3.70;;;;;;;11.03;77.14;101526.09;10417970;28;20042;-80
2022/06/20 20:43:35;;;;;;;7.47;4.32;;;;;;;10.86;78.85;101535.63;10439889;28;20041;-80
2022/06/20 20:48:40;;;;;;;6.53;4.10;;;;;;;10.80;80.44;101530.03;10447690;28;20033;-79
2022/06/20 20:53:57;;;;;;;12.45;5.40;;;;;;;10.67;81.66;101533.63;10429433;28;20132;-80
2022/06/20 20:59:04;;;;;;;11.52;4.50;;;;;;;10.55;82.20;101539.09;10424188;28;20046;-80
2022/06/20 21:04:08;;;;;;;5.75;4.50;;;;;;;10.43;82.65;101539.25;10427545;28;20047;-79
2022/06/20 21:09:22;;;;;;;9.02;6.15;;;;;;;10.30;83.64;101548.06;10428261;28;20536;-79
2022/06/20 21:14:25;;;;;;;11.50;5.03;;;;;;;10.08;84.22;101552.00;10429182;28;20077;-79
2022/06/20 21:19:30;;;;;;;10.18;4.93;;;;;;;9.94;85.19;101555.50;10425893;28;20071;-80
2022/06/20 21:24:43;;;;;;;11.05;4.72;;;;;;;9.91;86.25;101550.06;10428246;28;20435;-80
2022/06/20 21:29:43;;;;;;;;;;;;;;;9.73;86.48;101534.16;10417886;28;20048;-80
2022/06/20 21:34:46;;;;;;;6.95;4.85;;;;;;;9.69;88.27;101552.25;10404039;28;19932;-79
2022/06/20 21:39:57;;;;;;;9.05;5.40;;;;;;;9.70;88.34;101551.44;10361229;28;20057;-79
2022/06/20 21:44:58;;;;;;;8.80;5.45;;;;;;;9.62;88.55;101551.78;10402767;28;20037;-79
2022/06/20 21:49:59;;;;;;;7.97;5.05;;;;;;;9.57;88.60;101543.66;10387262;28;20038;-79
2022/06/20 21:55:01;;;;;;;8.48;5.05;;;;;;;9.62;88.29;101543.94;10399141;28;20115;-80
2022/06/20 22:00:05;;;;;;;10.07;5.80;;;;;;;9.51;88.13;101541.56;10411852;28;20123;-82
2022/06/20 22:05:10;;;;;;;10.85;5.07;;;;;;;9.30;88.58;101541.09;10442360;28;20033;-79
2022/06/20 22:10:15;;;;;;;8.52;4.97;;;;;;;9.16;88.93;101540.22;10448376;28;20072;-80
2022/06/20 22:15:32;;;;;;;15.55;6.53;;;;;;;9.01;89.34;101539.25;10449714;28;20047;-80
2022/06/20 22:20:37;;;;;;;7.95;4.72;;;;;;;9.03;90.94;101550.69;10393868;28;20489;-79
2022/06/20 22:25:43;;;;;;;10.05;6.45;;;;;;;9.06;89.98;101559.63;10482405;28;20039;-79
2022/06/20 22:30:47;;;;;;;7.72;5.82;;;;;;;8.93;90.13;101557.94;10447659;28;20033;-79
2022/06/20 22:35:51;;;;;;;6.30;4.80;;;;;;;8.86;90.46;101554.78;10449096;28;20041;-79
2022/06/20 22:40:53;;;;;;;8.80;5.78;;;;;;;8.80;91.04;101553.59;10446161;28;20043;-79
2022/06/20 22:45:56;;;;;;;9.00;5.32;;;;;;;8.77;91.38;101558.59;10447202;28;20041;-79
2022/06/20 22:51:02;;;;;;;9.65;6.28;;;;;;;8.67;90.84;101550.97;10423568;28;20059;-79
2022/06/20 22:56:25;;;;;;;9.98;6.05;;;;;;;8.61;92.05;101559.31;10464706;28;20112;-79
2022/06/20 23:01:36;;;;;;;7.68;5.05;;;;;;;8.49;92.10;101555.88;10469771;28;20044;-79
2022/06/20 23:06:36;;;;;;;10.55;5.43;;;;;;;8.43;92.20;101532.84;10426748;28;20392;-79
2022/06/20 23:11:37;;;;;;;9.73;5.55;;;;;;;8.30;91.78;101536.34;10444400;28;20039;-79
2022/06/20 23:21:57;;;;;;;12.60;6.28;;;;;;;8.10;92.50;101526.28;10445657;28;20045;-79
2022/06/20 23:26:57;;;;;;;12.80;6.15;;;;;;;8.05;93.05;101531.16;10469263;28;20369;-79
2022/06/20 23:31:58;;;;;;;10.85;6.72;;;;;;;8.04;94.06;101525.06;10487608;28;20060;-78
2022/06/20 23:36:59;;;;;;;9.20;6.70;;;;;;;8.01;93.93;101537.88;10471101;28;20087;-79
2022/06/20 23:41:59;;;;;;;11.27;8.48;;;;;;;8.01;94.49;101535.28;10471166;28;20183;-79
2022/06/20 23:47:00;;;;;;;9.95;6.95;;;;;;;8.01;94.37;101544.78;10414463;28;20124;-79
2022/06/20 23:52:01;;;;;;;14.23;9.65;;;;;;;7.89;94.82;101542.25;10435089;28;20437;-79
2022/06/20 23:57:01;;;;;;;11.43;8.07;;;;;;;7.79;94.23;101543.28;10470866;28;20097;-79
